Terminal Aerodrome Forecast
Issued by NWS Lake Charles, LA

Current Version | Previous Version | Text Only | Print | Product List | Glossary On
Versions: 1 2 3 4 5 6 7 8 9 10 11 12 13 14 15 16 17 18 19 20
000
FTUS44 KLCH 191100
TAFLFT
TAF
KLFT 191123Z 1912/2012 04003KT P6SM FEW015 BKN150
     FM191500 09005KT P6SM FEW025 BKN050
     FM191800 12008KT P6SM VCSH SCT050
     FM200000 12004KT P6SM FEW050=

USA.gov is the U.S. government's official web portal to all federal, state and local government web resources and services.